sensor_id;sensor_type;location;lat;lon;timestamp;pressure;altitude;pressure_sealevel;temperature;humidity
80568;BME280;69922;45.656;25.586;2023-12-28T00:00:48;96272.21;;;-0.49;77.15
80568;BME280;69922;45.656;25.586;2023-12-28T00:02:15;96274.25;;;-0.51;77.16
80568;BME280;69922;45.656;25.586;2023-12-28T00:03:22;96276.07;;;-0.53;77.07
80568;BME280;69922;45.656;25.586;2023-12-28T00:04:28;96274.05;;;-0.54;77.02
80568;BME280;69922;45.656;25.586;2023-12-28T00:05:36;96275.48;;;-0.55;77.14
80568;BME280;69922;45.656;25.586;2023-12-28T00:06:42;96273.55;;;-0.57;77.29
80568;BME280;69922;45.656;25.586;2023-12-28T00:07:49;96270.30;;;-0.58;77.04
80568;BME280;69922;45.656;25.586;2023-12-28T00:09:03;96272.15;;;-0.59;77.37
80568;BME280;69922;45.656;25.586;2023-12-28T00:10:17;96267.65;;;-0.60;77.51
80568;BME280;69922;45.656;25.586;2023-12-28T00:11:24;96266.23;;;-0.62;77.37
80568;BME280;69922;45.656;25.586;2023-12-28T00:12:30;96262.86;;;-0.63;77.44
80568;BME280;69922;45.656;25.586;2023-12-28T00:13:37;96264.91;;;-0.65;77.46
80568;BME280;69922;45.656;25.586;2023-12-28T00:14:44;96265.22;;;-0.65;77.46
80568;BME280;69922;45.656;25.586;2023-12-28T00:15:51;96263.00;;;-0.66;77.68
80568;BME280;69922;45.656;25.586;2023-12-28T00:16:57;96270.45;;;-0.66;77.65
80568;BME280;69922;45.656;25.586;2023-12-28T00:18:05;96268.97;;;-0.65;77.77
80568;BME280;69922;45.656;25.586;2023-12-28T00:19:12;96265.38;;;-0.65;77.82
80568;BME280;69922;45.656;25.586;2023-12-28T00:20:18;96259.72;;;-0.66;77.83
80568;BME280;69922;45.656;25.586;2023-12-28T00:21:25;96264.42;;;-0.65;78.09
80568;BME280;69922;45.656;25.586;2023-12-28T00:22:31;96257.82;;;-0.65;78.14
80568;BME280;69922;45.656;25.586;2023-12-28T00:23:38;96257.61;;;-0.65;78.22
80568;BME280;69922;45.656;25.586;2023-12-28T00:24:45;96259.75;;;-0.65;77.78
80568;BME280;69922;45.656;25.586;2023-12-28T00:25:51;96255.33;;;-0.66;77.83
80568;BME280;69922;45.656;25.586;2023-12-28T00:26:58;96257.06;;;-0.67;77.69
80568;BME280;69922;45.656;25.586;2023-12-28T00:28:05;96258.74;;;-0.69;77.89
80568;BME280;69922;45.656;25.586;2023-12-28T00:29:12;96261.69;;;-0.71;77.90
80568;BME280;69922;45.656;25.586;2023-12-28T00:30:18;96260.89;;;-0.72;77.80
80568;BME280;69922;45.656;25.586;2023-12-28T00:31:25;96264.80;;;-0.74;77.66
80568;BME280;69922;45.656;25.586;2023-12-28T00:32:32;96263.25;;;-0.76;77.86
80568;BME280;69922;45.656;25.586;2023-12-28T00:33:38;96265.94;;;-0.76;78.17
80568;BME280;69922;45.656;25.586;2023-12-28T00:34:44;96269.95;;;-0.77;78.18
80568;BME280;69922;45.656;25.586;2023-12-28T00:35:51;96273.06;;;-0.78;78.33
80568;BME280;69922;45.656;25.586;2023-12-28T00:36:58;96273.70;;;-0.79;78.32
80568;BME280;69922;45.656;25.586;2023-12-28T00:38:04;96277.85;;;-0.79;78.86
80568;BME280;69922;45.656;25.586;2023-12-28T00:39:11;96281.71;;;-0.80;78.92
80568;BME280;69922;45.656;25.586;2023-12-28T00:40:18;96279.73;;;-0.80;78.55
80568;BME280;69922;45.656;25.586;2023-12-28T00:41:24;96283.40;;;-0.80;78.83
80568;BME280;69922;45.656;25.586;2023-12-28T00:42:31;96282.45;;;-0.82;78.71
80568;BME280;69922;45.656;25.586;2023-12-28T00:43:37;96279.85;;;-0.83;78.81
80568;BME280;69922;45.656;25.586;2023-12-28T00:44:43;96281.80;;;-0.84;79.08
80568;BME280;69922;45.656;25.586;2023-12-28T00:45:50;96279.32;;;-0.84;78.93
80568;BME280;69922;45.656;25.586;2023-12-28T00:46:57;96277.20;;;-0.86;79.06
80568;BME280;69922;45.656;25.586;2023-12-28T00:48:05;96277.58;;;-0.86;78.97
80568;BME280;69922;45.656;25.586;2023-12-28T00:49:12;96281.58;;;-0.86;79.03
80568;BME280;69922;45.656;25.586;2023-12-28T00:50:19;96284.10;;;-0.86;78.95
80568;BME280;69922;45.656;25.586;2023-12-28T00:51:25;96283.23;;;-0.86;79.14
80568;BME280;69922;45.656;25.586;2023-12-28T00:52:32;96289.14;;;-0.86;78.86
80568;BME280;69922;45.656;25.586;2023-12-28T00:53:38;96290.41;;;-0.87;78.92
80568;BME280;69922;45.656;25.586;2023-12-28T00:54:44;96298.84;;;-0.87;79.03
80568;BME280;69922;45.656;25.586;2023-12-28T00:55:51;96300.45;;;-0.88;78.92
80568;BME280;69922;45.656;25.586;2023-12-28T00:56:58;96300.77;;;-0.89;79.10
80568;BME280;69922;45.656;25.586;2023-12-28T00:58:05;96301.80;;;-0.90;79.06
80568;BME280;69922;45.656;25.586;2023-12-28T00:59:11;96305.86;;;-0.91;78.78
80568;BME280;69922;45.656;25.586;2023-12-28T01:00:18;96304.70;;;-0.91;79.11
80568;BME280;69922;45.656;25.586;2023-12-28T01:01:24;96305.08;;;-0.92;79.01
80568;BME280;69922;45.656;25.586;2023-12-28T01:02:31;96308.34;;;-0.92;79.03
80568;BME280;69922;45.656;25.586;2023-12-28T01:03:37;96308.20;;;-0.93;78.99
80568;BME280;69922;45.656;25.586;2023-12-28T01:04:44;96301.58;;;-0.96;78.95
80568;BME280;69922;45.656;25.586;2023-12-28T01:05:51;96302.46;;;-0.97;78.86
80568;BME280;69922;45.656;25.586;2023-12-28T01:06:59;96301.12;;;-0.99;78.72
80568;BME280;69922;45.656;25.586;2023-12-28T01:08:06;96303.94;;;-1.01;78.78
80568;BME280;69922;45.656;25.586;2023-12-28T01:09:13;96305.92;;;-1.03;78.80
80568;BME280;69922;45.656;25.586;2023-12-28T01:10:19;96311.39;;;-1.05;78.94
80568;BME280;69922;45.656;25.586;2023-12-28T01:11:26;96307.00;;;-1.07;79.19
80568;BME280;69922;45.656;25.586;2023-12-28T01:12:33;96308.20;;;-1.08;79.05
80568;BME280;69922;45.656;25.586;2023-12-28T01:13:39;96312.21;;;-1.08;79.13
80568;BME280;69922;45.656;25.586;2023-12-28T01:14:47;96316.67;;;-1.08;79.15
80568;BME280;69922;45.656;25.586;2023-12-28T01:15:54;96319.67;;;-1.08;79.23
80568;BME280;69922;45.656;25.586;2023-12-28T01:17:00;96322.17;;;-1.07;78.94
80568;BME280;69922;45.656;25.586;2023-12-28T01:18:07;96321.31;;;-1.07;79.22
80568;BME280;69922;45.656;25.586;2023-12-28T01:19:14;96322.66;;;-1.06;79.01
80568;BME280;69922;45.656;25.586;2023-12-28T01:20:21;96323.24;;;-1.07;79.17
80568;BME280;69922;45.656;25.586;2023-12-28T01:21:27;96322.22;;;-1.07;79.10
80568;BME280;69922;45.656;25.586;2023-12-28T01:22:35;96323.96;;;-1.08;79.18
80568;BME280;69922;45.656;25.586;2023-12-28T01:23:41;96318.41;;;-1.09;78.94
80568;BME280;69922;45.656;25.586;2023-12-28T01:24:49;96318.19;;;-1.09;79.14
80568;BME280;69922;45.656;25.586;2023-12-28T01:25:56;96320.09;;;-1.08;79.20
80568;BME280;69922;45.656;25.586;2023-12-28T01:27:03;96320.45;;;-1.08;79.28
80568;BME280;69922;45.656;25.586;2023-12-28T01:28:10;96322.56;;;-1.08;78.98
80568;BME280;69922;45.656;25.586;2023-12-28T01:29:16;96318.35;;;-1.09;79.20
80568;BME280;69922;45.656;25.586;2023-12-28T01:30:23;96317.70;;;-1.09;79.06
80568;BME280;69922;45.656;25.586;2023-12-28T01:31:30;96315.05;;;-1.09;79.02
80568;BME280;69922;45.656;25.586;2023-12-28T01:32:37;96314.45;;;-1.10;79.06
80568;BME280;69922;45.656;25.586;2023-12-28T01:33:44;96314.59;;;-1.11;78.82
80568;BME280;69922;45.656;25.586;2023-12-28T01:34:50;96308.79;;;-1.12;78.95
80568;BME280;69922;45.656;25.586;2023-12-28T01:35:57;96307.28;;;-1.13;79.20
80568;BME280;69922;45.656;25.586;2023-12-28T01:37:04;96302.59;;;-1.14;79.20
80568;BME280;69922;45.656;25.586;2023-12-28T01:38:10;96302.86;;;-1.16;79.01
80568;BME280;69922;45.656;25.586;2023-12-28T01:39:17;96302.23;;;-1.17;79.20
80568;BME280;69922;45.656;25.586;2023-12-28T01:40:25;96298.51;;;-1.18;79.31
80568;BME280;69922;45.656;25.586;2023-12-28T01:41:31;96294.35;;;-1.19;79.35
80568;BME280;69922;45.656;25.586;2023-12-28T01:42:38;96288.84;;;-1.20;79.20
80568;BME280;69922;45.656;25.586;2023-12-28T01:43:45;96290.00;;;-1.21;79.27
80568;BME280;69922;45.656;25.586;2023-12-28T01:44:52;96285.27;;;-1.22;79.24
80568;BME280;69922;45.656;25.586;2023-12-28T01:45:58;96285.33;;;-1.23;79.70
80568;BME280;69922;45.656;25.586;2023-12-28T01:47:05;96282.94;;;-1.24;79.37
80568;BME280;69922;45.656;25.586;2023-12-28T01:48:13;96279.70;;;-1.25;79.47
80568;BME280;69922;45.656;25.586;2023-12-28T01:49:20;96275.23;;;-1.26;79.61
80568;BME280;69922;45.656;25.586;2023-12-28T01:50:27;96273.38;;;-1.27;79.71
80568;BME280;69922;45.656;25.586;2023-12-28T01:51:34;96269.34;;;-1.27;79.74
80568;BME280;69922;45.656;25.586;2023-12-28T01:52:42;96266.05;;;-1.28;79.74
80568;BME280;69922;45.656;25.586;2023-12-28T01:53:50;96263.53;;;-1.28;79.64
80568;BME280;69922;45.656;25.586;2023-12-28T01:54:57;96262.06;;;-1.29;79.82
80568;BME280;69922;45.656;25.586;2023-12-28T01:56:04;96264.70;;;-1.30;79.87
80568;BME280;69922;45.656;25.586;2023-12-28T01:57:12;96263.52;;;-1.30;79.88
80568;BME280;69922;45.656;25.586;2023-12-28T01:58:19;96263.20;;;-1.31;79.69
80568;BME280;69922;45.656;25.586;2023-12-28T01:59:26;96258.12;;;-1.31;80.05
80568;BME280;69922;45.656;25.586;2023-12-28T02:00:33;96259.09;;;-1.32;79.66
80568;BME280;69922;45.656;25.586;2023-12-28T02:01:43;96253.79;;;-1.33;79.82
80568;BME280;69922;45.656;25.586;2023-12-28T02:02:49;96258.40;;;-1.33;79.88
80568;BME280;69922;45.656;25.586;2023-12-28T02:03:57;96259.20;;;-1.33;79.74
80568;BME280;69922;45.656;25.586;2023-12-28T02:05:04;96256.77;;;-1.34;79.72
80568;BME280;69922;45.656;25.586;2023-12-28T02:06:11;96255.48;;;-1.34;79.93
80568;BME280;69922;45.656;25.586;2023-12-28T02:07:19;96256.17;;;-1.34;79.89
80568;BME280;69922;45.656;25.586;2023-12-28T02:08:26;96249.54;;;-1.34;80.04
80568;BME280;69922;45.656;25.586;2023-12-28T02:09:33;96254.40;;;-1.33;80.12
80568;BME280;69922;45.656;25.586;2023-12-28T02:10:40;96250.84;;;-1.33;79.99
80568;BME280;69922;45.656;25.586;2023-12-28T02:11:46;96251.83;;;-1.31;80.12
80568;BME280;69922;45.656;25.586;2023-12-28T02:12:52;96250.71;;;-1.28;80.29
80568;BME280;69922;45.656;25.586;2023-12-28T02:13:59;96244.30;;;-1.26;80.23
80568;BME280;69922;45.656;25.586;2023-12-28T02:15:08;96246.00;;;-1.23;80.27
80568;BME280;69922;45.656;25.586;2023-12-28T02:16:19;96244.34;;;-1.20;80.45
80568;BME280;69922;45.656;25.586;2023-12-28T02:17:30;96243.77;;;-1.19;80.34
80568;BME280;69922;45.656;25.586;2023-12-28T02:18:45;96241.40;;;-1.19;80.15
80568;BME280;69922;45.656;25.586;2023-12-28T02:19:54;96241.17;;;-1.19;80.06
80568;BME280;69922;45.656;25.586;2023-12-28T02:21:04;96239.46;;;-1.21;79.99
80568;BME280;69922;45.656;25.586;2023-12-28T02:22:14;96237.38;;;-1.23;79.99
80568;BME280;69922;45.656;25.586;2023-12-28T02:23:25;96240.52;;;-1.25;80.01
80568;BME280;69922;45.656;25.586;2023-12-28T02:24:31;96232.45;;;-1.28;79.97
80568;BME280;69922;45.656;25.586;2023-12-28T02:25:38;96231.85;;;-1.29;79.75
80568;BME280;69922;45.656;25.586;2023-12-28T02:26:44;96237.13;;;-1.31;79.69
80568;BME280;69922;45.656;25.586;2023-12-28T02:27:51;96238.67;;;-1.31;79.73
80568;BME280;69922;45.656;25.586;2023-12-28T02:28:58;96238.64;;;-1.32;79.76
80568;BME280;69922;45.656;25.586;2023-12-28T02:30:06;96238.67;;;-1.34;79.73
80568;BME280;69922;45.656;25.586;2023-12-28T02:31:17;96239.97;;;-1.35;80.03
80568;BME280;69922;45.656;25.586;2023-12-28T02:32:35;96239.70;;;-1.37;79.82
80568;BME280;69922;45.656;25.586;2023-12-28T02:33:48;96243.63;;;-1.38;79.74
80568;BME280;69922;45.656;25.586;2023-12-28T02:35:01;96244.44;;;-1.39;80.00
80568;BME280;69922;45.656;25.586;2023-12-28T02:36:13;96245.40;;;-1.39;80.33
80568;BME280;69922;45.656;25.586;2023-12-28T02:37:22;96246.76;;;-1.39;80.22
80568;BME280;69922;45.656;25.586;2023-12-28T02:38:32;96248.99;;;-1.38;80.14
80568;BME280;69922;45.656;25.586;2023-12-28T02:39:39;96245.45;;;-1.36;80.25
80568;BME280;69922;45.656;25.586;2023-12-28T02:40:47;96240.04;;;-1.35;80.11
80568;BME280;69922;45.656;25.586;2023-12-28T02:41:53;96234.48;;;-1.33;80.24
80568;BME280;69922;45.656;25.586;2023-12-28T02:43:01;96232.17;;;-1.32;79.94
80568;BME280;69922;45.656;25.586;2023-12-28T02:44:08;96229.65;;;-1.32;79.88
80568;BME280;69922;45.656;25.586;2023-12-28T02:45:15;96230.19;;;-1.32;79.80
80568;BME280;69922;45.656;25.586;2023-12-28T02:46:21;96222.94;;;-1.33;79.83
80568;BME280;69922;45.656;25.586;2023-12-28T02:47:27;96223.36;;;-1.33;79.77
80568;BME280;69922;45.656;25.586;2023-12-28T02:48:34;96220.79;;;-1.35;79.62
80568;BME280;69922;45.656;25.586;2023-12-28T02:49:41;96219.27;;;-1.36;79.66
80568;BME280;69922;45.656;25.586;2023-12-28T02:50:48;96220.84;;;-1.36;79.48
80568;BME280;69922;45.656;25.586;2023-12-28T02:51:54;96218.35;;;-1.37;79.60
80568;BME280;69922;45.656;25.586;2023-12-28T02:53:01;96212.35;;;-1.39;79.66
80568;BME280;69922;45.656;25.586;2023-12-28T02:54:08;96212.25;;;-1.41;79.53
80568;BME280;69922;45.656;25.586;2023-12-28T02:55:14;96211.73;;;-1.42;79.63
80568;BME280;69922;45.656;25.586;2023-12-28T02:56:20;96208.73;;;-1.44;79.79
80568;BME280;69922;45.656;25.586;2023-12-28T02:57:27;96210.03;;;-1.45;79.71
80568;BME280;69922;45.656;25.586;2023-12-28T02:58:33;96201.92;;;-1.46;79.94
80568;BME280;69922;45.656;25.586;2023-12-28T02:59:40;96202.92;;;-1.48;79.99
80568;BME280;69922;45.656;25.586;2023-12-28T03:00:47;96202.61;;;-1.48;79.91
80568;BME280;69922;45.656;25.586;2023-12-28T03:01:55;96200.21;;;-1.49;79.78
80568;BME280;69922;45.656;25.586;2023-12-28T03:03:01;96203.30;;;-1.50;79.80
80568;BME280;69922;45.656;25.586;2023-12-28T03:04:08;96199.77;;;-1.50;79.78
80568;BME280;69922;45.656;25.586;2023-12-28T03:05:16;96201.80;;;-1.50;79.99
80568;BME280;69922;45.656;25.586;2023-12-28T03:06:22;96202.66;;;-1.50;79.86
80568;BME280;69922;45.656;25.586;2023-12-28T03:07:28;96207.27;;;-1.50;80.03
80568;BME280;69922;45.656;25.586;2023-12-28T03:08:35;96212.22;;;-1.49;80.23
80568;BME280;69922;45.656;25.586;2023-12-28T03:09:41;96213.98;;;-1.49;80.36
80568;BME280;69922;45.656;25.586;2023-12-28T03:10:48;96215.49;;;-1.49;80.31
80568;BME280;69922;45.656;25.586;2023-12-28T03:11:54;96214.76;;;-1.48;80.35
80568;BME280;69922;45.656;25.586;2023-12-28T03:13:00;96218.64;;;-1.48;80.42
80568;BME280;69922;45.656;25.586;2023-12-28T03:14:07;96219.19;;;-1.47;80.36
80568;BME280;69922;45.656;25.586;2023-12-28T03:15:14;96218.66;;;-1.47;80.36
80568;BME280;69922;45.656;25.586;2023-12-28T03:16:20;96219.61;;;-1.46;80.60
80568;BME280;69922;45.656;25.586;2023-12-28T03:17:27;96223.80;;;-1.46;80.22
80568;BME280;69922;45.656;25.586;2023-12-28T03:18:35;96225.36;;;-1.45;80.38
80568;BME280;69922;45.656;25.586;2023-12-28T03:19:42;96224.03;;;-1.45;80.19
80568;BME280;69922;45.656;25.586;2023-12-28T03:20:48;96225.08;;;-1.43;80.29
80568;BME280;69922;45.656;25.586;2023-12-28T03:21:55;96225.13;;;-1.42;80.61
80568;BME280;69922;45.656;25.586;2023-12-28T03:23:02;96222.71;;;-1.40;80.94
80568;BME280;69922;45.656;25.586;2023-12-28T03:24:08;96227.88;;;-1.39;80.55
80568;BME280;69922;45.656;25.586;2023-12-28T03:25:15;96227.02;;;-1.38;80.64
80568;BME280;69922;45.656;25.586;2023-12-28T03:26:22;96231.14;;;-1.38;80.61
80568;BME280;69922;45.656;25.586;2023-12-28T03:27:28;96238.26;;;-1.37;80.47
80568;BME280;69922;45.656;25.586;2023-12-28T03:28:35;96231.69;;;-1.36;80.46
80568;BME280;69922;45.656;25.586;2023-12-28T03:29:42;96229.08;;;-1.34;80.43
80568;BME280;69922;45.656;25.586;2023-12-28T03:30:49;96224.00;;;-1.33;80.29
80568;BME280;69922;45.656;25.586;2023-12-28T03:31:55;96220.80;;;-1.33;80.04
80568;BME280;69922;45.656;25.586;2023-12-28T03:33:03;96217.86;;;-1.32;80.42
80568;BME280;69922;45.656;25.586;2023-12-28T03:34:09;96216.74;;;-1.32;80.27
80568;BME280;69922;45.656;25.586;2023-12-28T03:35:16;96215.81;;;-1.32;80.05
80568;BME280;69922;45.656;25.586;2023-12-28T03:36:22;96213.27;;;-1.33;80.33
80568;BME280;69922;45.656;25.586;2023-12-28T03:37:29;96215.34;;;-1.34;80.03
80568;BME280;69922;45.656;25.586;2023-12-28T03:38:36;96215.59;;;-1.35;80.27
80568;BME280;69922;45.656;25.586;2023-12-28T03:39:42;96209.91;;;-1.36;80.28
80568;BME280;69922;45.656;25.586;2023-12-28T03:40:49;96210.80;;;-1.37;79.98
80568;BME280;69922;45.656;25.586;2023-12-28T03:41:56;96209.73;;;-1.39;80.00
80568;BME280;69922;45.656;25.586;2023-12-28T03:43:03;96208.76;;;-1.39;80.42
80568;BME280;69922;45.656;25.586;2023-12-28T03:44:10;96210.58;;;-1.39;80.20
80568;BME280;69922;45.656;25.586;2023-12-28T03:45:16;96211.80;;;-1.39;80.25
80568;BME280;69922;45.656;25.586;2023-12-28T03:46:23;96210.99;;;-1.40;80.44
80568;BME280;69922;45.656;25.586;2023-12-28T03:47:29;96210.38;;;-1.40;80.19
80568;BME280;69922;45.656;25.586;2023-12-28T03:48:36;96210.89;;;-1.41;80.14
80568;BME280;69922;45.656;25.586;2023-12-28T03:49:43;96207.70;;;-1.43;80.25
80568;BME280;69922;45.656;25.586;2023-12-28T03:50:50;96211.08;;;-1.43;80.36
80568;BME280;69922;45.656;25.586;2023-12-28T03:51:57;96207.61;;;-1.44;80.06
80568;BME280;69922;45.656;25.586;2023-12-28T03:53:03;96211.33;;;-1.43;80.36
80568;BME280;69922;45.656;25.586;2023-12-28T03:54:10;96208.15;;;-1.43;80.47
80568;BME280;69922;45.656;25.586;2023-12-28T03:55:16;96205.05;;;-1.43;80.50
80568;BME280;69922;45.656;25.586;2023-12-28T03:56:26;96205.23;;;-1.43;80.46
80568;BME280;69922;45.656;25.586;2023-12-28T03:57:33;96204.69;;;-1.43;80.53
80568;BME280;69922;45.656;25.586;2023-12-28T03:58:40;96209.02;;;-1.43;80.48
80568;BME280;69922;45.656;25.586;2023-12-28T03:59:46;96206.64;;;-1.44;80.42
80568;BME280;69922;45.656;25.586;2023-12-28T04:00:54;96207.33;;;-1.44;80.52
80568;BME280;69922;45.656;25.586;2023-12-28T04:02:00;96211.95;;;-1.44;80.55
80568;BME280;69922;45.656;25.586;2023-12-28T04:03:07;96207.39;;;-1.44;80.74
80568;BME280;69922;45.656;25.586;2023-12-28T04:04:13;96205.29;;;-1.44;80.84
80568;BME280;69922;45.656;25.586;2023-12-28T04:05:20;96209.31;;;-1.44;80.88
80568;BME280;69922;45.656;25.586;2023-12-28T04:06:27;96206.52;;;-1.45;80.74
80568;BME280;69922;45.656;25.586;2023-12-28T04:07:33;96205.89;;;-1.44;80.65
80568;BME280;69922;45.656;25.586;2023-12-28T04:08:40;96211.79;;;-1.44;80.62
80568;BME280;69922;45.656;25.586;2023-12-28T04:09:46;96211.09;;;-1.44;80.61
80568;BME280;69922;45.656;25.586;2023-12-28T04:10:53;96214.84;;;-1.44;80.74
80568;BME280;69922;45.656;25.586;2023-12-28T04:11:59;96216.16;;;-1.44;80.70
80568;BME280;69922;45.656;25.586;2023-12-28T04:13:06;96224.45;;;-1.45;80.63
80568;BME280;69922;45.656;25.586;2023-12-28T04:14:13;96220.50;;;-1.46;80.61
80568;BME280;69922;45.656;25.586;2023-12-28T04:15:19;96224.17;;;-1.46;80.70
80568;BME280;69922;45.656;25.586;2023-12-28T04:16:26;96219.23;;;-1.46;80.50
80568;BME280;69922;45.656;25.586;2023-12-28T04:17:32;96224.59;;;-1.46;80.85
80568;BME280;69922;45.656;25.586;2023-12-28T04:18:39;96224.80;;;-1.46;80.54
80568;BME280;69922;45.656;25.586;2023-12-28T04:19:46;96224.79;;;-1.46;80.55
80568;BME280;69922;45.656;25.586;2023-12-28T04:20:52;96222.98;;;-1.46;80.66
80568;BME280;69922;45.656;25.586;2023-12-28T04:21:59;96218.23;;;-1.46;80.95
80568;BME280;69922;45.656;25.586;2023-12-28T04:23:05;96221.95;;;-1.48;80.50
80568;BME280;69922;45.656;25.586;2023-12-28T04:24:12;96224.15;;;-1.48;80.59
80568;BME280;69922;45.656;25.586;2023-12-28T04:25:18;96218.67;;;-1.48;80.86
80568;BME280;69922;45.656;25.586;2023-12-28T04:26:25;96219.95;;;-1.48;80.89
80568;BME280;69922;45.656;25.586;2023-12-28T04:27:31;96217.65;;;-1.48;81.08
80568;BME280;69922;45.656;25.586;2023-12-28T04:28:38;96213.19;;;-1.49;80.94
80568;BME280;69922;45.656;25.586;2023-12-28T04:29:45;96211.39;;;-1.50;80.75
80568;BME280;69922;45.656;25.586;2023-12-28T04:30:52;96212.65;;;-1.51;80.72
80568;BME280;69922;45.656;25.586;2023-12-28T04:31:59;96209.64;;;-1.51;80.91
80568;BME280;69922;45.656;25.586;2023-12-28T04:33:06;96209.19;;;-1.52;80.64
80568;BME280;69922;45.656;25.586;2023-12-28T04:34:13;96213.61;;;-1.53;80.99
80568;BME280;69922;45.656;25.586;2023-12-28T04:35:19;96216.48;;;-1.54;81.00
80568;BME280;69922;45.656;25.586;2023-12-28T04:36:26;96221.58;;;-1.55;80.62
80568;BME280;69922;45.656;25.586;2023-12-28T04:37:33;96224.57;;;-1.56;80.65
80568;BME280;69922;45.656;25.586;2023-12-28T04:38:40;96224.23;;;-1.56;80.88
80568;BME280;69922;45.656;25.586;2023-12-28T04:39:47;96221.53;;;-1.57;80.83
80568;BME280;69922;45.656;25.586;2023-12-28T04:40:54;96219.65;;;-1.58;80.70
80568;BME280;69922;45.656;25.586;2023-12-28T04:42:00;96217.02;;;-1.59;80.99
80568;BME280;69922;45.656;25.586;2023-12-28T04:43:06;96218.77;;;-1.61;80.58
80568;BME280;69922;45.656;25.586;2023-12-28T04:44:13;96218.04;;;-1.65;80.89
80568;BME280;69922;45.656;25.586;2023-12-28T04:45:19;96219.96;;;-1.68;81.22
80568;BME280;69922;45.656;25.586;2023-12-28T04:46:25;96220.98;;;-1.72;81.14
80568;BME280;69922;45.656;25.586;2023-12-28T04:47:32;96217.70;;;-1.76;81.14
80568;BME280;69922;45.656;25.586;2023-12-28T04:48:38;96217.91;;;-1.77;80.97
80568;BME280;69922;45.656;25.586;2023-12-28T04:49:45;96217.73;;;-1.80;81.21
80568;BME280;69922;45.656;25.586;2023-12-28T04:50:52;96213.92;;;-1.83;81.00
80568;BME280;69922;45.656;25.586;2023-12-28T04:51:59;96212.11;;;-1.85;81.03
80568;BME280;69922;45.656;25.586;2023-12-28T04:53:06;96207.65;;;-1.87;81.14
80568;BME280;69922;45.656;25.586;2023-12-28T04:54:13;96202.36;;;-1.90;81.19
80568;BME280;69922;45.656;25.586;2023-12-28T04:55:19;96204.84;;;-1.92;81.41
80568;BME280;69922;45.656;25.586;2023-12-28T04:56:27;96198.60;;;-1.94;81.46
80568;BME280;69922;45.656;25.586;2023-12-28T04:57:33;96198.91;;;-1.96;81.24
80568;BME280;69922;45.656;25.586;2023-12-28T04:58:40;96198.64;;;-1.98;81.27
80568;BME280;69922;45.656;25.586;2023-12-28T04:59:46;96201.74;;;-2.00;81.27
80568;BME280;69922;45.656;25.586;2023-12-28T05:00:53;96200.40;;;-2.01;81.36
80568;BME280;69922;45.656;25.586;2023-12-28T05:01:59;96202.61;;;-2.03;81.26
80568;BME280;69922;45.656;25.586;2023-12-28T05:03:06;96198.92;;;-2.04;81.49
80568;BME280;69922;45.656;25.586;2023-12-28T05:04:13;96193.20;;;-2.06;81.27
80568;BME280;69922;45.656;25.586;2023-12-28T05:05:23;96193.52;;;-2.08;81.13
80568;BME280;69922;45.656;25.586;2023-12-28T05:06:30;96194.77;;;-2.09;81.28
80568;BME280;69922;45.656;25.586;2023-12-28T05:07:37;96189.56;;;-2.11;81.20
80568;BME280;69922;45.656;25.586;2023-12-28T05:08:44;96185.16;;;-2.13;81.62
80568;BME280;69922;45.656;25.586;2023-12-28T05:09:51;96191.43;;;-2.14;81.33
80568;BME280;69922;45.656;25.586;2023-12-28T05:10:58;96193.45;;;-2.17;81.84
80568;BME280;69922;45.656;25.586;2023-12-28T05:12:06;96193.98;;;-2.19;81.56
80568;BME280;69922;45.656;25.586;2023-12-28T05:13:12;96188.06;;;-2.19;81.53
80568;BME280;69922;45.656;25.586;2023-12-28T05:14:18;96187.45;;;-2.20;81.47
80568;BME280;69922;45.656;25.586;2023-12-28T05:15:25;96190.16;;;-2.20;81.37
80568;BME280;69922;45.656;25.586;2023-12-28T05:16:31;96185.58;;;-2.22;81.84
80568;BME280;69922;45.656;25.586;2023-12-28T05:17:38;96182.94;;;-2.21;81.90
80568;BME280;69922;45.656;25.586;2023-12-28T05:18:45;96184.99;;;-2.21;81.79
80568;BME280;69922;45.656;25.586;2023-12-28T05:19:51;96184.13;;;-2.22;81.89
80568;BME280;69922;45.656;25.586;2023-12-28T05:20:58;96181.63;;;-2.22;81.34
80568;BME280;69922;45.656;25.586;2023-12-28T05:22:05;96187.18;;;-2.22;81.67
80568;BME280;69922;45.656;25.586;2023-12-28T05:23:12;96179.68;;;-2.22;81.66
80568;BME280;69922;45.656;25.586;2023-12-28T05:24:18;96179.08;;;-2.23;81.99
80568;BME280;69922;45.656;25.586;2023-12-28T05:25:25;96177.52;;;-2.23;81.71
80568;BME280;69922;45.656;25.586;2023-12-28T05:26:32;96177.02;;;-2.23;81.60
80568;BME280;69922;45.656;25.586;2023-12-28T05:27:38;96178.42;;;-2.24;81.56
80568;BME280;69922;45.656;25.586;2023-12-28T05:28:44;96177.13;;;-2.25;81.56
80568;BME280;69922;45.656;25.586;2023-12-28T05:29:50;96176.65;;;-2.27;81.37
80568;BME280;69922;45.656;25.586;2023-12-28T05:30:57;96172.76;;;-2.28;81.79
80568;BME280;69922;45.656;25.586;2023-12-28T05:32:06;96173.83;;;-2.29;81.54
80568;BME280;69922;45.656;25.586;2023-12-28T05:33:13;96177.20;;;-2.31;81.43
80568;BME280;69922;45.656;25.586;2023-12-28T05:34:19;96172.58;;;-2.32;81.92
80568;BME280;69922;45.656;25.586;2023-12-28T05:35:26;96170.20;;;-2.32;82.03
80568;BME280;69922;45.656;25.586;2023-12-28T05:36:32;96169.80;;;-2.33;81.98
80568;BME280;69922;45.656;25.586;2023-12-28T05:37:39;96170.06;;;-2.35;81.91
80568;BME280;69922;45.656;25.586;2023-12-28T05:38:45;96172.60;;;-2.34;81.81
80568;BME280;69922;45.656;25.586;2023-12-28T05:39:52;96166.67;;;-2.34;81.83
80568;BME280;69922;45.656;25.586;2023-12-28T05:40:59;96161.00;;;-2.34;82.16
80568;BME280;69922;45.656;25.586;2023-12-28T05:42:06;96164.91;;;-2.34;82.14
80568;BME280;69922;45.656;25.586;2023-12-28T05:43:12;96167.62;;;-2.33;82.05
80568;BME280;69922;45.656;25.586;2023-12-28T05:44:19;96165.64;;;-2.33;82.48
80568;BME280;69922;45.656;25.586;2023-12-28T05:45:26;96160.01;;;-2.33;82.37
80568;BME280;69922;45.656;25.586;2023-12-28T05:46:33;96161.36;;;-2.33;81.90
80568;BME280;69922;45.656;25.586;2023-12-28T05:47:39;96164.45;;;-2.33;82.35
80568;BME280;69922;45.656;25.586;2023-12-28T05:48:46;96161.15;;;-2.33;82.32
80568;BME280;69922;45.656;25.586;2023-12-28T05:49:52;96154.84;;;-2.32;82.24
80568;BME280;69922;45.656;25.586;2023-12-28T05:51:00;96158.42;;;-2.33;81.89